Overview Statistics Trail Chart Weather Telemetry Raw packets
 

This is the latest recevied telemetry packets stored in our database for station/object OE6POD-1. If no packets are shown the sender has not sent any telemetry packets the latest 10 day(s).

Telemetry packets is used to share measurements like repeteater parameters, battery voltage, radiation readings (or any other measurements).

<< 1 2 3 4 >>
Time Press* Temp.in* Hum* QNH* Temp.out*
1788565579 940.9 hPa 29.2 C deg 58 % 1020.2 hPa 24.4 C deg
1788563741 940.8 hPa 29.3 C deg 58.2 % 1020.1 hPa 24.4 C deg
1788561914 940.9 hPa 29.3 C deg 58 % 1020.2 hPa 24.4 C deg
1788560084 940.8 hPa 29.4 C deg 57.8 % 1020.1 hPa 24.4 C deg
1788558258 940.6 hPa 29.4 C deg 57.8 % 1019.9 hPa 24.5 C deg
1788556422 940.5 hPa 29.4 C deg 58 % 1019.7 hPa 24.6 C deg
1788554591 940.4 hPa 29 C deg 57.6 % 1019.7 hPa 24.8 C deg
1788552760 940.4 hPa 29.2 C deg 57.6 % 1019.6 hPa 24.7 C deg
1788550931 940.3 hPa 29.2 C deg 57.4 % 1019.6 hPa 24.6 C deg
1788549101 940.2 hPa 29.1 C deg 57.7 % 1019.5 hPa 24.3 C deg
1788547270 940.2 hPa 29.2 C deg 57.8 % 1019.5 hPa 24.4 C deg
1788545446 940 hPa 29.2 C deg 57.7 % 1019.3 hPa 24.4 C deg
1788543613 939.8 hPa 29.2 C deg 57.6 % 1019 hPa 24.5 C deg
1788541781 939.8 hPa 29.2 C deg 57.7 % 1019.1 hPa 24.6 C deg
1788539953 939.9 hPa 29.1 C deg 57.9 % 1019.2 hPa 24.6 C deg
1788538120 940.1 hPa 29 C deg 57.5 % 1019.3 hPa 24.8 C deg
1788536290 940.2 hPa 29.1 C deg 57.6 % 1019.5 hPa 25 C deg
1788534465 940.3 hPa 29 C deg 57.4 % 1019.6 hPa 25.2 C deg
1788532663 940.5 hPa 29.5 C deg 57.4 % 1019.7 hPa 25.2 C deg
1788530805 940.9 hPa 29.6 C deg 57.3 % 1020.1 hPa 25.5 C deg
1788528970 941.1 hPa 29.3 C deg 57.7 % 1020.4 hPa 24.8 C deg
1788527141 941.4 hPa 29.3 C deg 57.8 % 1020.8 hPa 24.7 C deg
1788525310 941.8 hPa 29.1 C deg 57.9 % 1021.2 hPa 24.7 C deg
1788523478 942.2 hPa 29.5 C deg 57.8 % 1021.5 hPa 24.9 C deg
1788521650 942.4 hPa 29.6 C deg 58.1 % 1021.7 hPa 24.9 C deg
*Used Equation Coefficients:
Press: 0, 1, 0
Temp.in: 0, 1, 0
Hum: 0, 1, 0
QNH: 0, 1, 0
Temp.out: 0, 1, 0

  • The parameter names for the analog channels will be Value1, Value2, Value3 (up to Value5) if station has not sent a PARAM-packet that specifies the parameter names for each analog channel.
  • Each analog value is a decimal number between 000 and 255 (according to APRS specifications). The receiver use the telemetry equation coefficientsto to restore the original sensor values. If no EQNS-packet with equation coefficients is sent we will show the values as is (this corresponds to the equation coefficients a=0, b=1 and c=0).
    The sent equation coefficients is used in the equation: a * value2 + b * value + c.
  • The units for the analog values will not be shown if station has not sent a UNIT-packet specifying what unit's to use.
  • The parameter names for the digital bits will be Bit1, Bit2, Bit3 (up to Bit8) if station has not sent a PARAM-packet that specifies the parameter names for each digital bit.
  • All bit labels will be named "On" if station has not sent a UNIT-packet that specifies the label of each bit.
  • A bit is considered to be On when the bit is 1 if station has not sent a BITS-packet that specifies another "Bit sense" (a BITS-packet specify the state of the bits that match the BIT labels)